createdAt,value
2023-04-12T00:02:06.538Z,2.83
2023-04-12T00:04:36.061Z,2.50
2023-04-12T00:07:05.955Z,2.70
2023-04-12T00:09:36.518Z,3.30
2023-04-12T00:12:06.217Z,3.00
2023-04-12T00:14:34.367Z,2.90
2023-04-12T00:17:03.757Z,3.10
2023-04-12T00:19:31.874Z,3.07
2023-04-12T00:21:59.844Z,2.83
2023-04-12T00:24:27.868Z,2.70
2023-04-12T00:26:56.269Z,2.83
2023-04-12T00:29:24.426Z,2.67
2023-04-12T00:31:52.469Z,2.93
2023-04-12T00:34:21.896Z,3.20
2023-04-12T00:36:50.840Z,2.80
2023-04-12T00:39:18.831Z,2.90
2023-04-12T00:41:46.859Z,3.20
2023-04-12T00:44:18.121Z,2.60
2023-04-12T00:46:46.692Z,3.70
2023-04-12T00:49:15.487Z,3.20
2023-04-12T00:51:46.305Z,2.93
2023-04-12T00:54:18.036Z,3.20
2023-04-12T00:56:47.397Z,2.93
2023-04-12T00:59:15.714Z,2.73
2023-04-12T01:01:45.285Z,3.37
2023-04-12T01:04:13.949Z,3.40
2023-04-12T01:06:57.639Z,3.47
2023-04-12T01:09:35.793Z,2.90
2023-04-12T01:12:11.241Z,2.93
2023-04-12T01:14:49.541Z,3.10
2023-04-12T01:17:25.056Z,2.67
2023-04-12T01:19:59.071Z,2.97
2023-04-12T01:22:46.158Z,2.73
2023-04-12T01:25:28.176Z,3.17
2023-04-12T01:28:00.957Z,2.63
2023-04-12T01:30:30.895Z,2.60
2023-04-12T01:33:02.771Z,2.90
2023-04-12T01:35:34.999Z,2.90
2023-04-12T01:38:04.386Z,2.97
2023-04-12T01:40:33.414Z,3.10
2023-04-12T01:43:10.871Z,3.20
2023-04-12T01:45:40.355Z,2.20
2023-04-12T01:48:10.982Z,2.90
2023-04-12T01:50:45.998Z,2.70
2023-04-12T01:53:19.360Z,2.83
2023-04-12T01:55:49.872Z,2.57
2023-04-12T01:58:23.212Z,2.57
2023-04-12T02:00:53.007Z,2.50
2023-04-12T02:03:23.227Z,2.90
2023-04-12T02:05:53.737Z,2.60
2023-04-12T02:08:22.697Z,2.60
2023-04-12T02:10:51.368Z,2.40
2023-04-12T02:13:20.761Z,3.10
2023-04-12T02:15:49.639Z,2.47
2023-04-12T02:18:17.976Z,2.67
2023-04-12T02:20:46.539Z,2.30
2023-04-12T02:23:14.601Z,2.50
2023-04-12T02:25:46.535Z,3.97
2023-04-12T02:28:16.355Z,2.50
2023-04-12T02:30:46.550Z,2.60
2023-04-12T02:33:15.771Z,3.00
2023-04-12T02:35:45.199Z,2.50
2023-04-12T02:38:16.628Z,2.90
2023-04-12T02:40:45.163Z,2.30
2023-04-12T02:43:16.554Z,2.93
2023-04-12T02:45:50.024Z,2.50
2023-04-12T02:48:18.138Z,2.87
2023-04-12T02:50:46.846Z,2.90
2023-04-12T02:53:18.384Z,3.03
2023-04-12T02:55:52.539Z,2.90
2023-04-12T02:58:24.764Z,2.67
2023-04-12T03:00:55.480Z,2.97
2023-04-12T03:03:31.918Z,3.20
2023-04-12T03:06:08.917Z,3.00
2023-04-12T03:08:38.576Z,2.97
2023-04-12T03:11:07.135Z,3.10
2023-04-12T03:13:35.253Z,2.90
2023-04-12T03:16:23.321Z,3.10
2023-04-12T03:18:56.967Z,3.30
2023-04-12T03:21:28.315Z,3.83
2023-04-12T03:23:58.317Z,3.00
2023-04-12T03:26:27.457Z,3.30
2023-04-12T03:29:01.730Z,3.47
2023-04-12T03:31:34.052Z,2.97
2023-04-12T03:34:06.852Z,3.60
2023-04-12T03:36:35.581Z,3.40
2023-04-12T03:39:11.283Z,3.20
2023-04-12T03:41:40.938Z,3.73
2023-04-12T03:44:09.562Z,3.30
2023-04-12T03:46:39.481Z,3.00
2023-04-12T03:49:11.361Z,2.97
2023-04-12T03:51:42.828Z,2.97
2023-04-12T03:54:13.716Z,3.00
2023-04-12T03:56:57.611Z,2.80
2023-04-12T03:59:39.404Z,2.87
2023-04-12T04:02:09.583Z,3.20
2023-04-12T04:04:44.614Z,3.03
2023-04-12T04:07:16.101Z,2.83
2023-04-12T04:09:46.604Z,3.13
2023-04-12T04:12:15.532Z,2.77
2023-04-12T04:14:47.512Z,2.77
2023-04-12T04:17:26.782Z,3.20
2023-04-12T04:19:55.571Z,3.33
2023-04-12T04:22:23.713Z,3.03
2023-04-12T04:24:53.525Z,2.73
2023-04-12T04:27:22.141Z,3.20
2023-04-12T04:29:53.624Z,3.50
2023-04-12T04:32:21.701Z,2.87
2023-04-12T04:34:53.392Z,2.83
2023-04-12T04:37:21.756Z,3.07
2023-04-12T04:39:50.737Z,2.80
2023-04-12T04:42:18.890Z,3.50
2023-04-12T04:45:04.544Z,2.97
2023-04-12T04:47:38.626Z,2.93
2023-04-12T04:50:09.357Z,2.90
2023-04-12T04:52:39.266Z,3.30
2023-04-12T04:55:11.829Z,3.20
2023-04-12T04:57:42.721Z,3.40
2023-04-12T05:00:14.123Z,3.23
2023-04-12T05:02:45.560Z,2.93
2023-04-12T05:05:23.463Z,2.77
2023-04-12T05:07:57.355Z,2.80
2023-04-12T05:10:26.697Z,3.17
2023-04-12T05:12:55.315Z,3.07
2023-04-12T05:15:24.624Z,3.00
2023-04-12T05:17:52.705Z,2.93
2023-04-12T05:20:22.359Z,3.30
2023-04-12T05:22:50.573Z,3.50
2023-04-12T05:25:20.510Z,2.50
2023-04-12T05:27:55.718Z,3.13
2023-04-12T05:30:23.999Z,2.73
2023-04-12T05:32:52.243Z,2.90
2023-04-12T05:35:22.616Z,3.13
2023-04-12T05:37:53.791Z,3.50
2023-04-12T05:40:21.947Z,2.50
2023-04-12T05:42:53.275Z,2.63
2023-04-12T05:45:21.522Z,3.40
2023-04-12T05:47:50.121Z,2.97
2023-04-12T05:50:18.432Z,2.43
2023-04-12T05:52:49.413Z,3.03
2023-04-12T05:55:18.432Z,2.87
2023-04-12T05:57:47.502Z,3.00
2023-04-12T06:00:23.986Z,2.83
2023-04-12T06:02:52.541Z,2.90
2023-04-12T06:05:21.009Z,3.20
2023-04-12T06:07:50.607Z,2.80
2023-04-12T06:10:19.235Z,2.63
2023-04-12T06:12:50.975Z,2.10
2023-04-12T06:15:20.855Z,3.27
2023-04-12T06:17:52.790Z,2.77
2023-04-12T06:20:20.996Z,2.80
2023-04-12T06:22:50.806Z,2.57
2023-04-12T06:25:19.010Z,2.63
2023-04-12T06:27:48.767Z,2.70
2023-04-12T06:30:19.586Z,2.80
2023-04-12T06:32:48.610Z,2.90
2023-04-12T06:35:16.901Z,2.83
2023-04-12T06:37:45.211Z,2.90
2023-04-12T06:40:14.684Z,2.93
2023-04-12T06:42:42.669Z,2.70
2023-04-12T06:45:12.150Z,3.67
2023-04-12T06:47:40.457Z,3.17
2023-04-12T06:50:09.410Z,3.00
2023-04-12T06:52:37.483Z,2.90
2023-04-12T06:55:06.455Z,3.10
2023-04-12T06:57:35.802Z,3.10
2023-04-12T07:00:04.428Z,2.77
2023-04-12T07:02:32.789Z,2.33
2023-04-12T07:05:00.982Z,2.67
2023-04-12T07:07:29.141Z,2.90
2023-04-12T07:09:57.217Z,3.77
2023-04-12T07:12:25.288Z,3.13
2023-04-12T07:14:54.683Z,2.50
2023-04-12T07:17:22.771Z,3.60
2023-04-12T07:19:52.169Z,4.80
2023-04-12T07:22:20.179Z,4.23
2023-04-12T07:24:49.157Z,3.30
2023-04-12T07:27:17.264Z,3.80
2023-04-12T07:29:45.470Z,4.00
2023-04-12T07:32:14.837Z,3.70
2023-04-12T07:34:42.918Z,4.53
2023-04-12T07:37:10.955Z,3.40
2023-04-12T07:39:40.664Z,3.87
2023-04-12T07:42:09.032Z,4.07
2023-04-12T07:44:38.854Z,3.50
2023-04-12T07:47:07.375Z,2.73
2023-04-12T07:49:36.890Z,3.20
2023-04-12T07:52:06.127Z,3.70
2023-04-12T07:54:34.644Z,4.70
2023-04-12T07:57:04.175Z,3.60
2023-04-12T07:59:32.726Z,3.20
2023-04-12T08:02:01.980Z,3.40
2023-04-12T08:04:30.385Z,4.30
2023-04-12T08:06:59.935Z,4.07
2023-04-12T08:09:28.608Z,4.30
2023-04-12T08:11:56.751Z,4.27
2023-04-12T08:14:24.895Z,4.40
2023-04-12T08:16:53.149Z,3.77
2023-04-12T08:19:22.313Z,3.60
2023-04-12T08:21:50.327Z,3.40
2023-04-12T08:24:19.990Z,3.73
2023-04-12T08:26:48.008Z,3.20
2023-04-12T08:29:16.081Z,2.90
2023-04-12T08:31:44.292Z,3.20
2023-04-12T08:34:12.496Z,3.13
2023-04-12T08:36:40.534Z,3.37
2023-04-12T08:39:09.509Z,3.20
2023-04-12T08:41:40.139Z,2.97
2023-04-12T08:44:09.446Z,2.73
2023-04-12T08:46:38.068Z,3.10
2023-04-12T08:49:06.424Z,3.03
2023-04-12T08:51:36.260Z,2.80
2023-04-12T08:54:06.167Z,3.00
2023-04-12T08:56:34.544Z,4.50
2023-04-12T08:59:04.175Z,3.70
2023-04-12T09:01:32.338Z,3.43
2023-04-12T09:04:01.009Z,3.50
2023-04-12T09:06:29.470Z,5.00
2023-04-12T09:08:59.423Z,4.47
2023-04-12T09:11:29.531Z,4.93
2023-04-12T09:13:59.185Z,4.67
2023-04-12T09:16:39.448Z,4.37
2023-04-12T09:19:07.776Z,3.97
2023-04-12T09:21:36.965Z,3.40
2023-04-12T09:24:12.328Z,3.33
2023-04-12T09:26:42.542Z,3.90
2023-04-12T09:29:25.315Z,3.67
2023-04-12T09:32:01.593Z,3.63
2023-04-12T09:34:30.243Z,5.00
2023-04-12T09:36:58.541Z,3.60
2023-04-12T09:39:33.899Z,3.60
2023-04-12T09:42:21.408Z,3.83
2023-04-12T09:44:58.023Z,3.40
2023-04-12T09:47:39.253Z,3.43
2023-04-12T09:50:09.615Z,3.30
2023-04-12T09:52:38.662Z,3.60
2023-04-12T09:55:10.884Z,3.40
2023-04-12T09:57:41.595Z,3.00
2023-04-12T10:00:14.095Z,2.87
2023-04-12T10:02:46.756Z,2.63
2023-04-12T10:05:18.207Z,3.03
2023-04-12T10:07:47.427Z,3.23
2023-04-12T10:10:17.938Z,3.10
2023-04-12T10:12:47.804Z,3.30
2023-04-12T10:15:17.853Z,3.47
2023-04-12T10:17:49.661Z,3.43
2023-04-12T10:20:19.512Z,2.70
2023-04-12T10:22:50.972Z,2.60
2023-04-12T10:25:20.568Z,2.83
2023-04-12T10:27:49.611Z,2.90
2023-04-12T10:30:25.371Z,2.90
2023-04-12T10:33:14.927Z,3.10
2023-04-12T10:36:11.013Z,2.60
2023-04-12T10:38:47.636Z,2.40
2023-04-12T10:41:19.827Z,2.80
2023-04-12T10:43:48.925Z,2.40
2023-04-12T10:46:49.063Z,2.40
2023-04-12T10:49:19.373Z,2.67
2023-04-12T10:52:14.133Z,2.70
2023-04-12T10:54:42.313Z,2.87
2023-04-12T10:57:47.209Z,2.93
2023-04-12T11:00:16.654Z,2.20
2023-04-12T11:03:11.714Z,2.57
2023-04-12T11:06:16.104Z,2.37
2023-04-12T11:09:21.886Z,2.60
2023-04-12T11:11:49.997Z,2.30
2023-04-12T11:14:19.197Z,2.30
2023-04-12T11:17:21.352Z,2.53
2023-04-12T11:19:53.227Z,2.50
2023-04-12T11:22:23.839Z,2.40
2023-04-12T11:24:53.542Z,2.60
2023-04-12T11:27:22.665Z,2.07
2023-04-12T11:29:52.658Z,2.40
2023-04-12T11:32:21.764Z,2.67
2023-04-12T11:34:50.166Z,2.40
2023-04-12T11:37:20.387Z,2.23
2023-04-12T11:39:53.093Z,3.43
2023-04-12T11:42:23.814Z,2.10
2023-04-12T11:44:58.764Z,2.10
2023-04-12T11:47:29.164Z,2.23
2023-04-12T11:49:58.882Z,2.47
2023-04-12T11:52:30.580Z,2.37
2023-04-12T11:55:02.340Z,2.23
2023-04-12T11:57:31.035Z,2.20
2023-04-12T12:00:00.366Z,2.40
2023-04-12T12:02:48.916Z,2.30
2023-04-12T12:05:24.888Z,2.03
2023-04-12T12:07:54.098Z,2.23
2023-04-12T12:10:40.014Z,2.10
2023-04-12T12:13:12.980Z,2.07
2023-04-12T12:15:45.041Z,1.90
2023-04-12T12:18:13.227Z,2.23
2023-04-12T12:20:43.092Z,2.30
2023-04-12T12:23:11.250Z,2.47
2023-04-12T12:25:47.170Z,2.20
2023-04-12T12:28:15.273Z,3.63
2023-04-12T12:30:43.788Z,2.30
2023-04-12T12:33:14.018Z,2.93
2023-04-12T12:35:42.294Z,2.40
2023-04-12T12:38:11.649Z,2.30
2023-04-12T12:40:41.398Z,2.60
2023-04-12T12:43:18.303Z,2.50
2023-04-12T12:45:46.458Z,2.30
2023-04-12T12:48:15.171Z,2.20
2023-04-12T12:50:43.806Z,2.27
2023-04-12T12:53:11.995Z,2.40
2023-04-12T12:55:41.458Z,2.43
2023-04-12T12:58:09.879Z,2.57
2023-04-12T13:00:38.161Z,2.63
2023-04-12T13:03:06.719Z,2.70
2023-04-12T13:05:35.049Z,2.27
2023-04-12T13:08:03.146Z,2.20
2023-04-12T13:10:31.435Z,2.37
2023-04-12T13:13:01.602Z,2.53
2023-04-12T13:15:30.082Z,2.40
2023-04-12T13:17:58.344Z,2.07
2023-04-12T13:20:27.765Z,2.50
2023-04-12T13:22:56.088Z,2.57
2023-04-12T13:25:24.543Z,2.00
2023-04-12T13:27:52.958Z,2.37
2023-04-12T13:30:22.618Z,2.07
2023-04-12T13:32:50.823Z,2.80
2023-04-12T13:35:19.715Z,2.80
2023-04-12T13:37:48.120Z,3.43
2023-04-12T13:40:16.178Z,2.40
2023-04-12T13:42:44.385Z,2.63
2023-04-12T13:45:12.981Z,2.47
2023-04-12T13:47:42.447Z,2.40
2023-04-12T13:50:11.362Z,2.40
2023-04-12T13:52:40.243Z,2.37
2023-04-12T13:55:09.139Z,2.40
2023-04-12T13:57:37.310Z,2.30
2023-04-12T14:00:06.550Z,2.50
2023-04-12T14:02:34.763Z,2.43
2023-04-12T14:05:04.915Z,2.30
2023-04-12T14:07:33.302Z,2.60
2023-04-12T14:10:01.304Z,2.60
2023-04-12T14:12:29.410Z,2.30
2023-04-12T14:14:57.492Z,2.60
2023-04-12T14:17:25.765Z,2.47
2023-04-12T14:19:54.055Z,2.50
2023-04-12T14:22:23.545Z,2.77
2023-04-12T14:24:51.626Z,2.70
2023-04-12T14:27:19.672Z,3.03
2023-04-12T14:29:47.950Z,2.77
2023-04-12T14:32:16.104Z,2.43
2023-04-12T14:34:44.301Z,2.87
2023-04-12T14:37:12.476Z,2.87
2023-04-12T14:39:42.561Z,2.60
2023-04-12T14:42:10.812Z,2.63
2023-04-12T14:44:39.084Z,2.20
2023-04-12T14:47:07.488Z,2.40
2023-04-12T14:49:35.543Z,2.70
2023-04-12T14:52:04.409Z,2.50
2023-04-12T14:54:32.549Z,2.83
2023-04-12T14:57:02.140Z,3.10
2023-04-12T14:59:30.193Z,3.10
2023-04-12T15:01:59.355Z,2.40
2023-04-12T15:04:27.651Z,2.40
2023-04-12T15:06:56.106Z,2.97
2023-04-12T15:09:24.135Z,3.30
2023-04-12T15:12:00.746Z,4.63
2023-04-12T15:14:30.239Z,4.20
2023-04-12T15:16:58.491Z,2.60
2023-04-12T15:19:27.204Z,2.90
2023-04-12T15:21:56.031Z,4.77
2023-04-12T15:24:24.537Z,2.43
2023-04-12T15:26:53.499Z,2.80
2023-04-12T15:29:22.366Z,2.67
2023-04-12T15:31:52.083Z,2.60
2023-04-12T15:34:20.190Z,2.30
2023-04-12T15:36:48.267Z,2.70
2023-04-12T15:39:17.209Z,2.30
2023-04-12T15:41:46.213Z,2.47
2023-04-12T15:44:14.571Z,2.17
2023-04-12T15:46:43.771Z,2.60
2023-04-12T15:49:13.283Z,2.20
2023-04-12T15:51:41.349Z,2.20
2023-04-12T15:54:09.577Z,2.20
2023-04-12T15:56:38.765Z,2.80
2023-04-12T15:59:09.119Z,2.67
2023-04-12T16:01:38.036Z,3.07
2023-04-12T16:04:07.712Z,2.70
2023-04-12T16:06:38.247Z,2.50
2023-04-12T16:09:06.857Z,2.50
2023-04-12T16:11:35.297Z,2.43
2023-04-12T16:14:03.325Z,2.20
2023-04-12T16:16:31.524Z,2.43
2023-04-12T16:19:00.493Z,2.10
2023-04-12T16:21:30.257Z,2.77
2023-04-12T16:24:00.681Z,2.90
2023-04-12T16:26:29.026Z,2.70
2023-04-12T16:28:58.396Z,2.50
2023-04-12T16:31:27.831Z,2.40
2023-04-12T16:33:56.003Z,2.57
2023-04-12T16:36:24.488Z,2.40
2023-04-12T16:38:55.015Z,2.20
2023-04-12T16:41:24.699Z,2.50
2023-04-12T16:43:55.049Z,2.40
2023-04-12T16:46:23.553Z,2.63
2023-04-12T16:48:51.736Z,2.40
2023-04-12T16:51:21.042Z,2.50
2023-04-12T16:53:49.230Z,2.50
2023-04-12T16:56:18.308Z,2.23
2023-04-12T16:58:48.887Z,2.50
2023-04-12T17:01:17.838Z,2.60
2023-04-12T17:03:47.318Z,2.60
2023-04-12T17:06:15.776Z,7.07
2023-04-12T17:08:44.924Z,3.20
2023-04-12T17:11:13.040Z,3.70
2023-04-12T17:13:42.211Z,6.40
2023-04-12T17:16:11.792Z,2.90
2023-04-12T17:18:43.377Z,4.10
2023-04-12T17:21:12.189Z,3.00
2023-04-12T17:23:40.505Z,2.60
2023-04-12T17:26:09.347Z,2.33
2023-04-12T17:28:39.618Z,2.57
2023-04-12T17:31:08.759Z,2.70
2023-04-12T17:33:38.486Z,2.70
2023-04-12T17:36:11.505Z,2.50
2023-04-12T17:38:39.970Z,2.80
2023-04-12T17:41:09.944Z,2.93
2023-04-12T17:43:38.427Z,3.20
2023-04-12T17:46:09.148Z,2.90
2023-04-12T17:48:40.138Z,2.60
2023-04-12T17:51:09.858Z,2.23
2023-04-12T17:53:38.120Z,2.37
2023-04-12T17:56:07.363Z,2.30
2023-04-12T17:58:35.486Z,2.40
2023-04-12T18:01:03.698Z,1.93
2023-04-12T18:03:32.538Z,1.83
2023-04-12T18:06:04.118Z,1.90
2023-04-12T18:08:32.387Z,2.20
2023-04-12T18:11:00.743Z,2.10
2023-04-12T18:13:29.359Z,2.47
2023-04-12T18:15:57.707Z,2.20
2023-04-12T18:18:26.117Z,2.20
2023-04-12T18:20:54.412Z,2.20
2023-04-12T18:23:23.891Z,2.10
2023-04-12T18:25:52.241Z,2.50
2023-04-12T18:28:20.724Z,2.20
2023-04-12T18:30:49.496Z,2.03
2023-04-12T18:33:18.016Z,2.00
2023-04-12T18:35:46.244Z,2.13
2023-04-12T18:38:14.353Z,1.90
2023-04-12T18:40:43.928Z,2.00
2023-04-12T18:43:12.162Z,1.97
2023-04-12T18:45:41.051Z,2.20
2023-04-12T18:48:09.923Z,2.30
2023-04-12T18:50:39.794Z,2.33
2023-04-12T18:55:50.928Z,2.30
2023-04-12T18:58:19.074Z,2.33
2023-04-12T19:00:47.106Z,2.47
2023-04-12T19:03:15.226Z,2.17
2023-04-12T19:05:44.176Z,2.27
2023-04-12T19:08:13.836Z,2.23
2023-04-12T19:10:41.886Z,2.33
2023-04-12T19:13:11.397Z,2.50
2023-04-12T19:15:39.565Z,2.30
2023-04-12T19:18:07.770Z,2.67
2023-04-12T19:20:35.872Z,2.30
2023-04-12T19:23:04.492Z,1.97
2023-04-12T19:25:33.068Z,2.03
2023-04-12T19:28:01.249Z,2.60
2023-04-12T19:30:33.619Z,2.00
2023-04-12T19:33:01.707Z,1.90
2023-04-12T19:35:32.894Z,1.80
2023-04-12T19:38:00.976Z,1.90
2023-04-12T19:40:30.542Z,2.37
2023-04-12T19:42:59.228Z,2.70
2023-04-12T19:45:27.848Z,1.93
2023-04-12T19:47:57.404Z,1.93
2023-04-12T19:50:25.419Z,2.03
2023-04-12T19:52:53.508Z,1.97
2023-04-12T19:55:23.391Z,1.97
2023-04-12T19:57:51.847Z,1.97
2023-04-12T20:00:23.215Z,1.90
2023-04-12T20:02:53.124Z,2.17
2023-04-12T20:05:24.013Z,2.23
2023-04-12T20:07:52.707Z,2.00
2023-04-12T20:10:20.999Z,1.90
2023-04-12T20:12:49.161Z,2.53
2023-04-12T20:15:18.765Z,1.60
2023-04-12T20:17:48.397Z,2.00
2023-04-12T20:20:17.292Z,1.70
2023-04-12T20:22:51.804Z,1.87
2023-04-12T20:25:20.389Z,2.20
2023-04-12T20:27:51.860Z,2.10
2023-04-12T20:30:21.124Z,1.90
2023-04-12T20:32:51.540Z,2.10
2023-04-12T20:35:19.803Z,2.27
2023-04-12T20:37:51.066Z,1.73
2023-04-12T20:40:20.337Z,1.77
2023-04-12T20:42:48.357Z,2.03
2023-04-12T20:45:17.761Z,2.13
2023-04-12T20:47:46.044Z,2.00
2023-04-12T20:50:14.079Z,1.80
2023-04-12T20:52:42.177Z,2.00
2023-04-12T20:55:14.107Z,2.17
2023-04-12T20:57:43.724Z,1.80
2023-04-12T21:00:18.043Z,2.10
2023-04-12T21:02:47.265Z,1.93
2023-04-12T21:05:16.882Z,2.10
2023-04-12T21:07:46.802Z,2.00
2023-04-12T21:10:16.587Z,2.40
2023-04-12T21:12:44.894Z,2.40
2023-04-12T21:15:13.928Z,2.37
2023-04-12T21:17:42.820Z,2.20
2023-04-12T21:20:13.550Z,2.20
2023-04-12T21:22:43.857Z,2.30
2023-04-12T21:25:13.605Z,2.30
2023-04-12T21:27:44.898Z,2.33
2023-04-12T21:30:16.271Z,2.40
2023-04-12T21:32:44.346Z,2.37
2023-04-12T21:35:12.946Z,2.30
2023-04-12T21:37:41.083Z,2.13
2023-04-12T21:40:10.283Z,1.97
2023-04-12T21:42:39.097Z,2.27
2023-04-12T21:45:10.494Z,2.20
2023-04-12T21:47:40.647Z,2.30
2023-04-12T21:50:09.875Z,2.17
2023-04-12T21:52:38.187Z,2.20
2023-04-12T21:55:06.774Z,1.93
2023-04-12T21:57:35.804Z,1.90
2023-04-12T22:00:05.567Z,1.70
2023-04-12T22:02:41.500Z,1.70
2023-04-12T22:05:10.183Z,1.87
2023-04-12T22:07:40.930Z,1.80
2023-04-12T22:10:12.059Z,1.80
2023-04-12T22:12:40.676Z,2.40
2023-04-12T22:15:11.710Z,1.63
2023-04-12T22:17:41.361Z,1.80
2023-04-12T22:20:10.875Z,1.70
2023-04-12T22:22:39.037Z,1.93
2023-04-12T22:25:11.864Z,1.87
2023-04-12T22:27:39.937Z,2.07
2023-04-12T22:30:10.083Z,1.87
2023-04-12T22:32:38.377Z,1.63
2023-04-12T22:35:09.363Z,1.30
2023-04-12T22:37:38.854Z,1.80
2023-04-12T22:40:11.729Z,1.50
2023-04-12T22:42:46.545Z,1.63
2023-04-12T22:45:15.885Z,1.60
2023-04-12T22:47:44.214Z,1.50
2023-04-12T22:50:14.012Z,1.43
2023-04-12T22:52:42.423Z,1.27
2023-04-12T22:55:12.944Z,1.60
2023-04-12T22:57:41.187Z,1.40
2023-04-12T23:00:14.944Z,1.70
2023-04-12T23:02:45.045Z,1.63
2023-04-12T23:05:14.913Z,1.40
2023-04-12T23:07:44.123Z,1.60
2023-04-12T23:10:12.508Z,1.60
2023-04-12T23:12:40.496Z,1.90
2023-04-12T23:15:09.795Z,2.00
2023-04-12T23:17:38.034Z,1.80
2023-04-12T23:20:09.933Z,2.20
2023-04-12T23:22:56.589Z,2.40
2023-04-12T23:25:38.863Z,1.60
2023-04-12T23:28:13.526Z,1.60
2023-04-12T23:30:44.125Z,1.77
2023-04-12T23:33:12.813Z,1.57
2023-04-12T23:35:41.889Z,1.70
2023-04-12T23:38:15.393Z,1.60
2023-04-12T23:40:44.214Z,1.40
2023-04-12T23:43:12.326Z,1.57
2023-04-12T23:45:40.343Z,1.50
2023-04-12T23:48:08.760Z,1.57
2023-04-12T23:50:36.824Z,1.23
2023-04-12T23:53:06.098Z,1.57
2023-04-12T23:55:35.822Z,1.40
2023-04-12T23:58:03.890Z,1.80
